Time;durP1;ratioP1;P1;durP2;ratioP2;P2;SDS_P1;SDS_P2;PMS_P1;PMS_P2;Temp;Humidity;BMP_temperature;BMP_pressure;BME280_temperature;BME280_humidity;BME280_pressure;Samples;Min_cycle;Max_cycle;Signal;HPM_P1;HPM_P2
2021/08/26 00:06:47;;;;;;;;;28.50;25.50;;;;;19.43;55.39;101152.41;5062119;28;45985;-87
2021/08/26 00:09:15;;;;;;;;;24.25;21.25;;;;;19.22;55.64;101131.44;5044376;28;45810;-86
2021/08/26 00:11:45;;;;;;;;;21.75;21.00;;;;;18.92;55.84;101076.06;5063523;28;45495;-87
2021/08/26 00:14:11;;;;;;;;;25.75;22.00;;;;;19.28;55.55;101149.44;5043299;28;47308;-86
2021/08/26 00:16:40;;;;;;;;;24.50;22.75;;;;;19.43;55.33;101180.81;5040700;28;46437;-86
2021/08/26 00:19:06;;;;;;;;;24.25;21.75;;;;;19.09;55.15;101132.81;5035139;28;45808;-86
2021/08/26 00:21:31;;;;;;;;;24.25;21.25;;;;;19.20;55.43;101144.06;5036567;28;45754;-87
2021/08/26 00:23:57;;;;;;;;;25.50;24.25;;;;;19.34;55.98;101185.19;5038452;28;47242;-86
2021/08/26 00:26:22;;;;;;;;;22.50;21.75;;;;;19.32;55.92;101176.56;5040052;28;46511;-86
2021/08/26 00:28:47;;;;;;;;;23.25;21.00;;;;;18.95;55.97;101120.88;5039567;28;45637;-86
2021/08/26 00:31:13;;;;;;;;;20.50;18.75;;;;;19.00;55.97;101131.88;5073523;28;45860;-86
2021/08/26 00:33:38;;;;;;;;;24.25;22.75;;;;;19.24;56.18;101174.66;5039016;28;47387;-85
2021/08/26 00:36:04;;;;;;;;;27.25;22.50;;;;;19.22;56.19;101187.25;5059716;28;45650;-86
2021/08/26 00:38:30;;;;;;;;;20.00;19.50;;;;;19.02;55.65;101145.88;5064172;28;45681;-87
2021/08/26 00:44:18;;;;;;;;;16.75;16.50;;;;;19.13;56.07;101182.84;5062782;28;45818;-85
2021/08/26 00:46:47;;;;;;;;;21.50;19.75;;;;;18.71;56.21;101115.31;5038200;28;46999;-86
2021/08/26 00:49:17;;;;;;;;;17.75;17.00;;;;;18.72;55.95;101122.31;5037704;28;45764;-86
2021/08/26 00:51:44;;;;;;;;;19.50;18.50;;;;;18.93;56.31;101153.91;5071937;28;45588;-86
2021/08/26 00:54:10;;;;;;;;;15.25;15.00;;;;;18.85;56.13;101144.84;5056647;28;45550;-85
2021/08/26 00:56:37;;;;;;;;;17.25;17.00;;;;;18.79;57.01;101140.13;5056925;28;45575;-86
2021/08/26 00:59:04;;;;;;;;;16.25;15.50;;;;;18.74;57.22;101134.44;5072182;28;45777;-86
2021/08/26 01:01:37;;;;;;;;;14.50;14.25;;;;;18.41;56.71;101093.38;5038748;28;46023;-86
2021/08/26 01:04:20;;;;;;;;;15.00;14.75;;;;;18.72;56.99;101146.22;5059066;28;45651;-88
2021/08/26 01:06:57;;;;;;;;;16.00;15.00;;;;;18.79;57.96;101179.13;5043015;28;47400;-86
2021/08/26 01:09:28;;;;;;;;;14.25;12.25;;;;;18.38;57.47;101104.28;5041567;28;45739;-86
2021/08/26 01:11:56;;;;;;;;;16.00;15.00;;;;;18.45;57.73;101128.44;5038124;28;46032;-87
2021/08/26 01:14:22;;;;;;;;;14.00;13.00;;;;;18.31;57.54;101110.31;5037835;28;48241;-88
2021/08/26 01:16:48;;;;;;;;;14.00;14.00;;;;;18.51;57.58;101156.19;5037953;28;48053;-86
2021/08/26 01:19:13;;;;;;;;;14.75;13.75;;;;;18.39;57.06;101129.00;5037755;28;45771;-87
2021/08/26 01:21:39;;;;;;;;;16.00;13.25;;;;;18.27;57.29;101131.00;5072110;28;45957;-86
2021/08/26 01:24:08;;;;;;;;;13.00;13.00;;;;;18.53;57.16;101170.13;5037646;28;46490;-86
2021/08/26 01:26:37;;;;;;;;;12.00;11.50;;;;;18.31;58.10;101132.38;5071752;28;47330;-86
2021/08/26 01:29:05;;;;;;;;;11.50;11.00;;;;;18.12;57.34;101098.00;5038010;28;45668;-85
2021/08/26 01:31:31;;;;;;;;;11.50;10.75;;;;;18.42;57.34;101148.13;5056652;28;45694;-85
2021/08/26 01:33:57;;;;;;;;;13.75;13.00;;;;;18.02;57.96;101091.91;5037302;28;47578;-86
2021/08/26 01:36:33;;;;;;;;;12.50;11.25;;;;;18.16;58.13;101117.94;5055675;28;46496;-86
2021/08/26 01:39:10;;;;;;;;;15.00;13.75;;;;;18.09;58.15;101102.72;5055470;28;45483;-86
2021/08/26 01:41:50;;;;;;;;;13.00;12.00;;;;;18.26;57.88;101132.00;5037588;28;45864;-84
2021/08/26 01:44:22;;;;;;;;;10.25;9.50;;;;;18.29;58.04;101139.69;5037415;28;47529;-86
2021/08/26 01:46:49;;;;;;;;;11.50;10.00;;;;;18.07;58.22;101110.03;5055887;28;46292;-86
2021/08/26 01:49:15;;;;;;;;;14.25;12.00;;;;;18.04;58.19;101111.97;5055394;28;45572;-86
2021/08/26 01:51:41;;;;;;;;;11.25;11.00;;;;;18.00;58.92;101115.06;5037016;28;45648;-86
2021/08/26 01:54:07;;;;;;;;;11.00;10.75;;;;;17.98;58.67;101107.25;5055676;28;45665;-86
2021/08/26 01:56:35;;;;;;;;;8.25;7.75;;;;;17.56;58.35;101047.63;5055571;28;45661;-85
2021/08/26 01:59:00;;;;;;;;;8.25;7.50;;;;;17.78;58.87;101083.59;5071697;28;45808;-86
2021/08/26 02:01:26;;;;;;;;;11.00;10.00;;;;;17.92;58.36;101102.50;5056641;28;45896;-86
2021/08/26 02:03:51;;;;;;;;;13.00;11.50;;;;;17.87;58.92;101099.47;5037645;28;48451;-85
2021/08/26 02:06:16;;;;;;;;;9.75;9.25;;;;;17.66;58.49;101071.47;5038034;28;47233;-86
2021/08/26 02:08:42;;;;;;;;;10.50;9.75;;;;;17.73;58.51;101070.78;5037165;28;45789;-84
2021/08/26 02:14:29;;;;;;;;;10.50;10.00;;;;;17.87;58.65;101088.84;5058812;27;45988;-85
2021/08/26 02:16:55;;;;;;;;;11.00;10.00;;;;;17.75;58.42;101089.19;5043485;28;47188;-86
2021/08/26 02:19:20;;;;;;;;;12.50;12.50;;;;;18.06;59.57;101141.00;5062493;28;45661;-86
2021/08/26 02:21:46;;;;;;;;;12.50;12.25;;;;;17.79;58.66;101107.31;5042736;28;45557;-85
2021/08/26 02:24:11;;;;;;;;;13.25;12.00;;;;;17.75;59.33;101105.94;5077566;28;47283;-85
2021/08/26 02:26:37;;;;;;;;;14.00;13.75;;;;;17.95;60.20;101141.16;5044225;28;47137;-87
2021/08/26 02:29:04;;;;;;;;;13.00;12.00;;;;;17.71;59.55;101095.72;5037040;28;45682;-84
2021/08/26 02:31:30;;;;;;;;;13.00;12.50;;;;;17.67;60.18;101103.13;5055521;28;45662;-84
2021/08/26 02:33:55;;;;;;;;;13.00;11.50;;;;;17.72;60.09;101122.09;5055423;28;45664;-86
2021/08/26 02:36:21;;;;;;;;;13.25;12.25;;;;;17.76;59.95;101118.19;5055017;28;45653;-86
2021/08/26 02:38:47;;;;;;;;;12.00;12.00;;;;;17.70;59.54;101117.94;5054864;28;45770;-85
2021/08/26 02:44:34;;;;;;;;;15.75;14.50;;;;;17.75;59.28;101128.94;5054442;28;45646;-86
2021/08/26 02:46:59;;;;;;;;;16.75;15.25;;;;;17.56;59.39;101105.91;5034660;28;46782;-85
2021/08/26 02:49:24;;;;;;;;;14.75;13.75;;;;;17.58;59.97;101110.09;5054762;28;45650;-85
2021/08/26 02:51:50;;;;;;;;;10.50;10.50;;;;;17.70;59.90;101137.31;5070429;28;45890;-85
2021/08/26 02:54:16;;;;;;;;;13.75;12.75;;;;;17.50;60.25;101091.41;5036285;28;47198;-85
2021/08/26 03:00:05;;;;;;;;;12.00;11.50;;;;;17.27;60.31;101063.59;5054472;28;45729;-86
2021/08/26 03:02:31;;;;;;;;;10.75;10.75;;;;;17.38;60.19;101091.72;5054125;28;45665;-85
2021/08/26 03:04:56;;;;;;;;;11.00;9.75;;;;;17.20;60.05;101067.75;5054198;28;45652;-86
2021/08/26 03:07:21;;;;;;;;;9.75;9.00;;;;;17.42;60.28;101116.97;5035487;28;46352;-86
2021/08/26 03:09:47;;;;;;;;;8.00;8.00;;;;;17.53;60.48;101114.16;5036061;28;45701;-85
2021/08/26 03:12:12;;;;;;;;;8.00;8.00;;;;;17.52;60.18;101123.91;5037099;28;45591;-86
2021/08/26 03:14:37;;;;;;;;;6.25;6.00;;;;;17.24;60.59;101078.91;5070883;28;48327;-85
2021/08/26 03:17:03;;;;;;;;;9.00;8.75;;;;;17.38;60.13;101097.84;5036945;28;47227;-86
2021/08/26 03:19:28;;;;;;;;;10.25;8.50;;;;;17.39;60.34;101094.22;5054935;28;45601;-87
2021/08/26 03:21:54;;;;;;;;;8.00;8.00;;;;;17.28;60.31;101082.94;5055424;28;45484;-85
2021/08/26 03:24:19;;;;;;;;;7.00;7.00;;;;;17.27;60.42;101083.94;5055405;28;46827;-84
2021/08/26 03:30:07;;;;;;;;;5.25;5.25;;;;;17.41;60.64;101113.47;5054636;28;45653;-84
2021/08/26 03:32:33;;;;;;;;;5.50;5.00;;;;;17.32;60.26;101085.19;5054240;28;45584;-86
2021/08/26 03:34:59;;;;;;;;;5.00;5.00;;;;;17.29;60.31;101095.19;5054449;28;45730;-86
2021/08/26 03:37:24;;;;;;;;;4.50;4.50;;;;;17.17;60.91;101068.03;5054457;28;45578;-85
2021/08/26 03:39:49;;;;;;;;;5.50;5.00;;;;;17.36;60.26;101106.91;5036250;28;45840;-85
2021/08/26 03:42:15;;;;;;;;;6.00;5.25;;;;;17.34;60.43;101117.66;5054810;28;45572;-86
2021/08/26 03:44:42;;;;;;;;;6.50;5.00;;;;;17.12;60.28;101071.09;5038761;28;47537;-86
2021/08/26 03:47:07;;;;;;;;;5.25;5.00;;;;;17.33;60.23;101118.63;5058750;28;45754;-85
2021/08/26 03:49:34;;;;;;;;;7.00;6.75;;;;;16.97;60.73;101042.53;5059202;28;45596;-85
2021/08/26 03:52:00;;;;;;;;;5.50;5.25;;;;;16.98;60.59;101055.63;5040625;28;46115;-86
2021/08/26 03:54:25;;;;;;;;;7.00;6.25;;;;;17.17;61.00;101091.84;5036468;28;48449;-86
2021/08/26 04:00:13;;;;;;;;;7.50;6.50;;;;;17.15;60.89;101093.81;5057369;28;45657;-86
2021/08/26 04:02:38;;;;;;;;;7.25;6.75;;;;;16.96;60.72;101064.69;5057414;28;45709;-85
2021/08/26 04:05:04;;;;;;;;;5.50;5.00;;;;;16.92;60.74;101069.44;5056636;28;46649;-86
2021/08/26 04:07:32;;;;;;;;;5.00;5.00;;;;;17.03;60.51;101077.25;5037946;28;45742;-85
2021/08/26 04:09:59;;;;;;;;;5.00;5.00;;;;;16.90;60.64;101052.84;5038609;28;45960;-85
2021/08/26 04:12:26;;;;;;;;;7.00;6.75;;;;;17.17;60.46;101099.81;5057394;28;45560;-85
2021/08/26 04:14:52;;;;;;;;;7.25;5.75;;;;;16.91;60.47;101064.25;5038474;28;46816;-84
2021/08/26 04:17:17;;;;;;;;;5.50;5.25;;;;;16.92;60.57;101066.78;5038197;28;47041;-85
2021/08/26 04:19:43;;;;;;;;;5.75;5.75;;;;;16.89;60.63;101061.78;5038309;28;45699;-85
2021/08/26 04:22:09;;;;;;;;;6.50;6.00;;;;;17.15;60.67;101107.91;5038836;28;45966;-85
2021/08/26 04:24:34;;;;;;;;;7.25;5.50;;;;;17.28;60.45;101126.16;5062450;28;45686;-86
2021/08/26 04:30:22;;;;;;;;;5.50;5.00;;;;;17.28;61.01;101115.56;5065713;28;45867;-84
2021/08/26 04:32:48;;;;;;;;;4.75;4.75;;;;;17.07;60.37;101083.06;5065066;28;45335;-85
2021/08/26 04:35:13;;;;;;;;;4.00;4.00;;;;;17.02;60.69;101066.78;5051091;28;46754;-87
2021/08/26 04:37:39;;;;;;;;;4.00;3.75;;;;;16.97;60.59;101067.19;5078048;28;48485;-84
2021/08/26 04:40:05;;;;;;;;;4.50;3.25;;;;;16.74;60.64;101026.09;5074308;28;45633;-85
2021/08/26 04:42:30;;;;;;;;;3.00;3.00;;;;;17.07;61.18;101077.78;5039894;28;45642;-86
2021/08/26 04:44:56;;;;;;;;;5.25;4.00;;;;;17.23;61.14;101104.53;5038562;28;47693;-85
2021/08/26 04:47:21;;;;;;;;;4.25;4.00;;;;;17.02;60.65;101074.72;5056679;28;45756;-87
2021/08/26 04:49:46;;;;;;;;;4.00;3.25;;;;;16.88;61.16;101051.31;5078018;28;45586;-86
2021/08/26 04:52:13;;;;;;;;;3.25;3.00;;;;;16.96;60.95;101078.75;5070683;28;45622;-86
2021/08/26 04:54:38;;;;;;;;;4.00;4.00;;;;;16.96;61.00;101075.28;5052294;28;48687;-85
2021/08/26 05:00:26;;;;;;;;;3.50;3.50;;;;;17.05;60.78;101098.28;5058334;28;45634;-84
2021/08/26 05:02:51;;;;;;;;;3.00;3.00;;;;;16.71;61.23;101044.91;5074742;28;45726;-86
2021/08/26 05:05:54;;;;;;;;;3.00;3.00;;;;;17.13;61.22;101116.94;5042230;28;47983;-86
2021/08/26 05:08:43;;;;;;;;;;;;;;;;;;;;;
2021/08/26 05:11:42;;;;;;;;;1.50;1.50;;;;;16.63;60.90;101018.28;5059058;28;73188;-86
2021/08/26 05:14:31;;;;;;;;;3.00;2.00;;;;;16.61;61.69;101028.19;5041981;28;45950;-85
2021/08/26 05:20:10;;;;;;;;;2.00;2.00;;;;;17.17;61.66;101116.53;4963587;28;45884;-85
2021/08/26 05:22:57;;;;;;;;;2.00;2.00;;;;;17.02;61.58;101085.31;4954305;28;45316;-85
2021/08/26 05:28:46;;;;;;;;;2.00;2.00;;;;;16.93;61.77;101073.75;4971573;28;45757;-85
2021/08/26 05:31:12;;;;;;;;;3.25;1.50;;;;;17.19;61.89;101119.88;4962045;28;46038;-85
2021/08/26 05:33:37;;;;;;;;;4.00;2.25;;;;;17.13;61.62;101103.72;4941495;28;45954;-85
2021/08/26 05:36:03;;;;;;;;;3.00;2.25;;;;;17.00;61.98;101079.34;4959262;28;46127;-85
2021/08/26 05:38:28;;;;;;;;;2.75;2.75;;;;;16.94;62.42;101064.00;4956507;28;47385;-84
2021/08/26 05:44:16;;;;;;;;;2.75;2.75;;;;;17.11;62.01;101095.09;4954015;28;45692;-85
2021/08/26 05:46:43;;;;;;;;;2.50;2.00;;;;;16.92;62.36;101050.91;4954086;28;45711;-85
2021/08/26 05:49:08;;;;;;;;;4.50;3.00;;;;;16.91;62.35;101065.09;4953723;28;46997;-84
2021/08/26 05:51:34;;;;;;;;;3.00;3.00;;;;;17.23;62.26;101101.06;4953803;28;48163;-84
2021/08/26 05:53:59;;;;;;;;;2.00;2.00;;;;;16.73;62.43;101013.84;4954025;28;45698;-85
2021/08/26 05:59:53;;;;;;;;;3.00;3.00;;;;;17.24;62.25;101102.72;5054618;28;46064;-86
2021/08/26 06:02:18;;;;;;;;;2.00;2.00;;;;;17.25;61.99;101097.31;5055032;28;46383;-85
2021/08/26 06:04:43;;;;;;;;;3.00;2.50;;;;;16.94;62.11;101054.25;5036960;28;45858;-86
2021/08/26 06:07:09;;;;;;;;;2.75;2.75;;;;;17.18;62.41;101093.53;5036747;28;45581;-85
2021/08/26 06:09:34;;;;;;;;;3.00;2.75;;;;;17.32;62.17;101111.66;5069917;28;45810;-85
2021/08/26 06:15:22;;;;;;;;;3.75;3.00;;;;;17.27;62.25;101094.53;5053893;27;45670;-85
2021/08/26 06:17:47;;;;;;;;;9.75;5.00;;;;;17.23;62.05;101093.94;5055102;28;45770;-85
2021/08/26 06:20:14;;;;;;;;;8.50;5.50;;;;;17.19;61.91;101081.97;5054144;28;45932;-85
2021/08/26 06:22:41;;;;;;;;;5.25;3.75;;;;;16.93;62.31;101036.69;5054943;28;46049;-86
2021/08/26 06:25:07;;;;;;;;;3.00;3.00;;;;;17.12;62.16;101062.31;5054727;28;45679;-85
2021/08/26 06:30:55;;;;;;;;;9.25;5.50;;;;;17.23;62.66;101087.81;5058279;28;46093;-84
2021/08/26 06:33:20;;;;;;;;;10.75;7.00;;;;;16.89;62.46;101032.66;5043764;28;47195;-86
2021/08/26 06:35:47;;;;;;;;;4.00;4.00;;;;;17.24;62.20;101097.44;5043794;28;45656;-86
2021/08/26 06:38:12;;;;;;;;;4.50;4.25;;;;;17.23;62.26;101079.88;5062113;28;45472;-86
2021/08/26 06:40:37;;;;;;;;;2.00;0.00;;;;;17.44;62.47;101114.97;5043867;28;46406;-84
2021/08/26 06:43:05;;;;;;;;;4.00;3.25;;;;;17.16;62.54;101064.56;5058942;28;45581;-85
2021/08/26 06:45:30;;;;;;;;;5.00;3.00;;;;;17.35;62.22;101086.69;5036317;28;45599;-84
2021/08/26 06:47:55;;;;;;;;;3.50;3.00;;;;;17.41;62.41;101099.38;5037384;28;45625;-84
2021/08/26 06:50:21;;;;;;;;;2.00;2.00;;;;;17.53;62.68;101120.28;5037411;28;47489;-86
2021/08/26 06:52:46;;;;;;;;;3.00;3.00;;;;;17.55;62.33;101118.31;5037292;28;47071;-86
2021/08/26 06:55:12;;;;;;;;;2.50;2.50;;;;;17.29;62.46;101076.66;5074062;28;45586;-85
2021/08/26 07:00:59;;;;;;;;;4.00;3.00;;;;;17.37;62.64;101093.53;5060691;28;45822;-85
2021/08/26 07:03:24;;;;;;;;;2.00;2.00;;;;;17.25;62.58;101068.19;5060488;28;45574;-84
2021/08/26 07:05:49;;;;;;;;;3.75;3.75;;;;;17.56;62.63;101121.81;5055608;28;45584;-86
2021/08/26 07:08:15;;;;;;;;;3.00;3.00;;;;;17.42;62.72;101088.66;5070549;28;45589;-85
2021/08/26 07:10:40;;;;;;;;;3.00;3.00;;;;;17.42;62.88;101093.13;5036293;28;46694;-85
2021/08/26 07:13:06;;;;;;;;;3.75;3.00;;;;;17.32;62.99;101066.66;5035966;28;47155;-85
2021/08/26 07:15:32;;;;;;;;;7.00;5.25;;;;;17.40;63.38;101082.66;5036013;28;45549;-85
2021/08/26 07:17:57;;;;;;;;;5.00;4.50;;;;;17.39;63.35;101080.97;5035779;28;46181;-85
2021/08/26 07:20:23;;;;;;;;;4.50;3.00;;;;;17.51;63.19;101101.03;5035616;28;47328;-84
2021/08/26 07:22:49;;;;;;;;;4.25;4.25;;;;;17.62;63.52;101126.59;5019924;28;46016;-85
2021/08/26 07:25:15;;;;;;;;;5.50;5.50;;;;;17.32;63.65;101065.81;5071198;28;45920;-86
2021/08/26 07:31:02;;;;;;;;;7.75;6.00;;;;;17.53;63.11;101098.25;5054138;28;45681;-86
2021/08/26 07:33:29;;;;;;;;;5.00;4.75;;;;;17.68;63.21;101106.63;5039557;28;48477;-85
2021/08/26 07:35:55;;;;;;;;;5.75;5.50;;;;;17.46;63.57;101082.09;5041108;28;45794;-85
2021/08/26 07:38:22;;;;;;;;;5.00;5.00;;;;;17.54;63.40;101087.50;5039937;28;45682;-86
2021/08/26 07:40:47;;;;;;;;;5.00;5.00;;;;;17.67;63.30;101099.66;5059079;28;45610;-86
2021/08/26 07:43:14;;;;;;;;;4.75;4.00;;;;;17.65;63.49;101099.81;5073454;28;47319;-87
2021/08/26 07:45:39;;;;;;;;;7.75;5.25;;;;;17.61;63.91;101087.81;5073774;28;45534;-84
2021/08/26 07:48:05;;;;;;;;;7.00;5.00;;;;;17.61;63.03;101091.28;5040687;28;45871;-84
2021/08/26 07:50:30;;;;;;;;;7.00;5.00;;;;;17.81;63.62;101120.44;5059283;28;45704;-86
2021/08/26 07:52:56;;;;;;;;;7.00;6.00;;;;;17.73;63.84;101102.56;5058929;28;45595;-88
2021/08/26 07:55:22;;;;;;;;;7.00;4.50;;;;;17.52;63.75;101062.97;5040071;28;45886;-86
2021/08/26 07:57:47;;;;;;;;;5.75;5.00;;;;;17.57;63.39;101065.19;5072942;28;45688;-84
2021/08/26 08:00:13;;;;;;;;;8.50;6.50;;;;;17.57;63.87;101066.03;5072750;28;47314;-86
2021/08/26 08:02:40;;;;;;;;;7.00;7.00;;;;;17.60;63.53;101075.53;5039294;28;46612;-85
2021/08/26 08:05:06;;;;;;;;;6.00;5.75;;;;;17.66;63.78;101079.41;5057932;28;45645;-87
2021/08/26 08:07:31;;;;;;;;;7.75;6.00;;;;;17.78;63.56;101091.53;5056801;28;45650;-86
2021/08/26 08:09:56;;;;;;;;;6.25;5.00;;;;;17.95;63.74;101117.31;5039183;28;47625;-86
2021/08/26 08:12:22;;;;;;;;;7.25;5.25;;;;;17.64;63.83;101065.50;5057292;28;46153;-84
2021/08/26 08:14:48;;;;;;;;;5.50;5.00;;;;;18.01;63.93;101119.38;5057307;28;46210;-86
2021/08/26 08:17:13;;;;;;;;;8.00;5.75;;;;;18.03;63.52;101117.41;5038563;28;45574;-85
2021/08/26 08:19:39;;;;;;;;;5.25;5.00;;;;;17.66;63.87;101053.75;5038734;28;46203;-84
2021/08/26 08:22:04;;;;;;;;;5.50;5.50;;;;;17.87;63.48;101088.84;5057607;28;45594;-87
2021/08/26 08:24:30;;;;;;;;;6.25;5.25;;;;;17.75;63.93;101063.53;5058041;28;45724;-86
2021/08/26 08:26:56;;;;;;;;;6.00;5.50;;;;;17.73;63.45;101054.03;5040214;28;45606;-86
2021/08/26 08:29:22;;;;;;;;;8.25;7.00;;;;;17.90;63.79;101075.31;5040030;28;47825;-85
2021/08/26 08:31:48;;;;;;;;;6.00;4.75;;;;;17.90;63.89;101069.19;5042100;28;47214;-85
2021/08/26 08:34:13;;;;;;;;;6.00;5.75;;;;;18.14;63.32;101093.38;5047177;28;45639;-87
2021/08/26 08:36:39;;;;;;;;;7.00;6.00;;;;;17.83;63.36;101039.75;5053187;28;45612;-85
2021/08/26 08:39:05;;;;;;;;;6.00;6.00;;;;;18.17;63.46;101081.63;5072783;28;45645;-86
2021/08/26 08:41:32;;;;;;;;;5.75;4.75;;;;;18.13;63.80;101057.25;5048831;28;47507;-85
2021/08/26 08:43:59;;;;;;;;;5.00;5.00;;;;;18.26;63.58;101084.25;5044747;28;45734;-85
2021/08/26 08:46:26;;;;;;;;;10.75;8.50;;;;;18.54;63.38;101110.78;5063734;28;45728;-86
2021/08/26 08:48:53;;;;;;;;;6.50;5.75;;;;;18.28;63.86;101054.91;5038311;28;46789;-85
2021/08/26 08:51:21;;;;;;;;;7.50;7.25;;;;;18.34;63.32;101068.44;5038905;28;47234;-85
2021/08/26 08:53:47;;;;;;;;;6.50;5.00;;;;;18.71;63.29;101126.78;5072934;28;45658;-87
2021/08/26 08:56:12;;;;;;;;;5.50;4.50;;;;;18.58;63.68;101090.94;5039220;28;45686;-86
2021/08/26 08:58:39;;;;;;;;;6.50;5.00;;;;;18.78;63.33;101111.94;5057311;28;45622;-86
2021/08/26 09:01:05;;;;;;;;;6.25;5.75;;;;;18.52;62.95;101063.16;5038945;28;47082;-86
2021/08/26 09:03:30;;;;;;;;;5.50;5.25;;;;;18.68;63.45;101089.91;5038894;28;45674;-86
2021/08/26 09:05:59;;;;;;;;;5.50;5.00;;;;;18.73;63.60;101076.22;5038529;28;45709;-87
2021/08/26 09:08:29;;;;;;;;;4.50;4.50;;;;;18.96;63.36;101100.47;5037384;28;47300;-86
2021/08/26 09:18:14;;;;;;;;;5.25;4.75;;;;;19.03;64.02;101107.69;4994099;28;45805;-84
2021/08/26 09:20:55;;;;;;;;;4.00;4.00;;;;;18.96;63.99;101092.50;4977392;28;48423;-85
2021/08/26 09:23:22;;;;;;;;;6.25;5.25;;;;;19.10;63.63;101114.09;4994294;28;45957;-85
2021/08/26 09:25:48;;;;;;;;;5.00;4.25;;;;;19.12;63.91;101109.44;4977317;28;45852;-85
2021/08/26 09:31:36;;;;;;;;;6.00;5.50;;;;;19.13;63.56;101115.59;4994817;28;45847;-85
2021/08/26 09:34:16;;;;;;;;;4.00;3.75;;;;;18.96;64.04;101069.44;4993716;28;47201;-87
2021/08/26 09:36:47;;;;;;;;;9.25;6.50;;;;;19.25;64.47;101107.25;4993582;28;45573;-87
2021/08/26 09:39:18;;;;;;;;;3.00;3.00;;;;;19.17;63.75;101093.03;4993135;28;45930;-84
2021/08/26 09:42:00;;;;;;;;;4.50;3.25;;;;;19.01;64.29;101066.31;4993521;28;46503;-86
2021/08/26 09:44:35;;;;;;;;;4.75;3.75;;;;;19.19;64.01;101083.94;4993462;28;48538;-85
2021/08/26 09:47:05;;;;;;;;;5.25;3.50;;;;;19.00;63.67;101038.13;4992845;28;45712;-86
2021/08/26 09:49:36;;;;;;;;;4.50;3.75;;;;;18.94;63.92;101028.13;4976501;28;45613;-86
2021/08/26 09:52:07;;;;;;;;;2.75;2.75;;;;;19.43;63.74;101099.25;5017244;28;46402;-86
2021/08/26 09:54:37;;;;;;;;;4.25;4.00;;;;;19.31;63.43;101067.75;5035555;28;45723;-85
2021/08/26 09:57:04;;;;;;;;;3.00;3.00;;;;;19.46;63.80;101088.34;5017555;28;45928;-86
2021/08/26 10:00:04;;;;;;;;;3.25;2.75;;;;;19.60;63.77;101100.22;5017336;28;45677;-85
2021/08/26 10:02:31;;;;;;;;;3.25;3.25;;;;;19.51;63.71;101083.41;4954745;28;45760;-84
2021/08/26 10:04:57;;;;;;;;;3.00;3.00;;;;;19.36;63.21;101053.03;4939189;28;46345;-86
2021/08/26 10:07:25;;;;;;;;;2.00;2.00;;;;;19.68;63.27;101106.44;4954076;28;45751;-83
2021/08/26 10:09:51;;;;;;;;;3.00;2.75;;;;;19.73;63.25;101092.69;4938051;28;45680;-85
2021/08/26 10:12:17;;;;;;;;;2.00;2.00;;;;;19.63;63.17;101071.53;4954514;28;45619;-86
2021/08/26 10:14:47;;;;;;;;;2.75;2.75;;;;;19.83;63.23;101097.91;4940422;28;47262;-86
2021/08/26 10:17:14;;;;;;;;;3.75;3.75;;;;;19.59;63.15;101046.25;4975562;28;45838;-83
2021/08/26 10:19:40;;;;;;;;;2.00;2.00;;;;;19.73;63.25;101054.63;4981089;28;45939;-84
2021/08/26 10:22:07;;;;;;;;;4.00;3.00;;;;;19.80;63.14;101061.81;4964693;28;47491;-86
2021/08/26 10:24:33;;;;;;;;;3.00;3.00;;;;;20.06;63.25;101091.06;4981200;28;45533;-85
2021/08/26 10:27:04;;;;;;;;;2.50;2.00;;;;;20.00;62.97;101063.25;4976731;28;45672;-87
2021/08/26 10:29:32;;;;;;;;;4.50;3.00;;;;;19.98;63.22;101053.75;4957611;28;45898;-84
2021/08/26 10:32:00;;;;;;;;;3.75;3.00;;;;;20.23;62.97;101084.81;4956982;28;47545;-85
2021/08/26 10:34:28;;;;;;;;;3.00;3.00;;;;;20.14;62.72;101059.16;4973298;28;46335;-84
2021/08/26 10:36:56;;;;;;;;;3.00;3.00;;;;;20.31;63.18;101090.19;4974508;28;45678;-84
2021/08/26 10:39:31;;;;;;;;;3.00;1.25;;;;;20.36;63.20;101089.72;5052849;28;45904;-83
2021/08/26 10:42:18;;;;;;;;;2.50;2.00;;;;;20.39;62.84;101081.44;5021501;28;48903;-85
2021/08/26 10:45:02;;;;;;;;;1.75;1.50;;;;;20.45;62.95;101084.28;5042755;28;45517;-83
2021/08/26 10:47:49;;;;;;;;;2.00;2.00;;;;;20.49;63.01;101080.28;5057971;28;45827;-82
2021/08/26 10:50:27;;;;;;;;;2.75;2.75;;;;;20.36;62.85;101055.94;5041797;28;45635;-84
2021/08/26 10:52:57;;;;;;;;;2.00;2.00;;;;;20.58;62.97;101077.66;5041423;28;46723;-84
2021/08/26 10:55:33;;;;;;;;;2.25;1.75;;;;;20.38;62.61;101042.50;5037639;28;46588;-85
2021/08/26 10:58:21;;;;;;;;;1.00;1.00;;;;;20.68;62.39;101084.50;5051917;28;45644;-86
2021/08/26 11:00:48;;;;;;;;;1.00;1.00;;;;;20.66;62.23;101070.53;5030307;28;45835;-86
2021/08/26 11:03:32;;;;;;;;;2.25;2.00;;;;;20.70;61.96;101060.38;5036476;28;45772;-86
2021/08/26 11:05:58;;;;;;;;;2.00;2.00;;;;;20.77;61.71;101080.88;5035808;28;46553;-86
2021/08/26 11:08:32;;;;;;;;;0.50;0.50;;;;;20.78;61.89;101087.03;5034302;28;45624;-85
2021/08/26 11:11:18;;;;;;;;;2.00;1.00;;;;;20.67;61.68;101076.69;5035081;28;45715;-85
2021/08/26 11:13:43;;;;;;;;;1.00;1.00;;;;;20.45;61.41;101049.69;5050695;28;47563;-84
2021/08/26 11:16:24;;;;;;;;;1.00;1.00;;;;;20.64;61.52;101088.47;5035242;28;45693;-85
2021/08/26 11:18:55;;;;;;;;;2.00;2.00;;;;;20.30;61.60;101045.06;5050332;28;45945;-85
2021/08/26 11:24:28;;;;;;;;;4.00;3.00;;;;;20.59;61.53;101092.63;5033506;28;45650;-86
2021/08/26 11:30:22;;;;;;;;;3.00;3.00;;;;;20.43;61.70;101080.94;4991757;28;45680;-86
2021/08/26 11:32:47;;;;;;;;;4.00;3.25;;;;;20.36;61.47;101063.09;4993171;28;45952;-85
2021/08/26 11:35:13;;;;;;;;;4.00;3.50;;;;;20.26;61.16;101062.38;4991456;28;48624;-84
2021/08/26 11:37:39;;;;;;;;;4.00;2.75;;;;;20.49;61.44;101098.09;4974736;28;46991;-83
2021/08/26 11:40:14;;;;;;;;;4.00;2.25;;;;;20.44;61.15;101081.78;4991682;28;46006;-86
2021/08/26 11:46:10;;;;;;;;;4.25;4.00;;;;;20.53;60.95;101070.16;4991076;28;46127;-83
2021/08/26 11:48:35;;;;;;;;;4.00;3.00;;;;;20.46;60.96;101061.13;4991969;28;45606;-86
2021/08/26 11:51:02;;;;;;;;;3.25;2.25;;;;;20.71;61.11;101083.34;4991676;28;45637;-85
2021/08/26 11:53:27;;;;;;;;;2.25;2.00;;;;;20.72;61.04;101085.88;4992222;28;45885;-86
2021/08/26 11:55:55;;;;;;;;;3.50;2.00;;;;;20.43;60.79;101027.69;4976850;28;47471;-86
2021/08/26 12:01:42;;;;;;;;;2.00;1.50;;;;;20.75;60.69;101072.19;4997082;28;45663;-84
2021/08/26 12:04:07;;;;;;;;;1.00;1.00;;;;;20.67;60.50;101055.38;5017441;28;45720;-84
2021/08/26 12:06:34;;;;;;;;;3.75;2.00;;;;;20.59;60.13;101026.06;5019256;28;47538;-84
2021/08/26 12:08:59;;;;;;;;;5.00;3.50;;;;;20.80;60.25;101034.41;5049450;28;46550;-84
2021/08/26 12:11:26;;;;;;;;;4.00;3.00;;;;;20.73;60.35;101014.78;5057866;28;45019;-84
2021/08/26 12:17:17;;;;;;;;;2.75;2.75;;;;;21.03;59.71;101066.59;5060215;27;45590;-85
2021/08/26 12:19:45;;;;;;;;;3.75;2.25;;;;;20.99;59.20;101062.59;5060938;28;45820;-86
2021/08/26 12:22:19;;;;;;;;;4.50;3.50;;;;;20.92;59.07;101054.41;5042432;28;45676;-86
2021/08/26 12:24:56;;;;;;;;;2.00;2.00;;;;;21.08;58.85;101074.91;5059960;28;45670;-84
2021/08/26 12:27:27;;;;;;;;;5.75;4.00;;;;;20.77;58.78;101035.59;5058758;28;45856;-85
2021/08/26 12:29:53;;;;;;;;;5.25;4.50;;;;;20.82;58.81;101021.78;5040723;28;47182;-86
2021/08/26 12:32:29;;;;;;;;;3.50;2.50;;;;;20.94;58.75;101037.25;5074313;28;45771;-84
2021/08/26 12:35:17;;;;;;;;;3.50;3.00;;;;;21.14;58.16;101063.59;5058538;28;45564;-86
2021/08/26 12:37:56;;;;;;;;;4.00;4.00;;;;;21.14;58.31;101064.47;5073131;28;47986;-87
2021/08/26 12:40:24;;;;;;;;;4.00;3.00;;;;;20.86;58.22;101018.63;5058148;28;46043;-86
2021/08/26 12:42:57;;;;;;;;;5.25;4.00;;;;;21.18;58.05;101075.63;5056937;28;45596;-83
2021/08/26 12:45:24;;;;;;;;;6.50;5.00;;;;;21.19;57.98;101088.78;5038866;28;45999;-84
2021/08/26 12:47:49;;;;;;;;;6.00;4.25;;;;;21.03;58.07;101050.59;5056202;28;45805;-86
2021/08/26 12:50:28;;;;;;;;;5.50;4.50;;;;;21.17;57.80;101068.59;5071862;28;48002;-83
2021/08/26 12:52:54;;;;;;;;;8.00;5.50;;;;;21.07;57.95;101049.25;5060132;28;45773;-84